createdAt,value
2023-12-14T00:01:50.184Z,13.13
2023-12-14T00:04:16.730Z,13.88
2023-12-14T00:06:43.252Z,14.10
2023-12-14T00:09:09.844Z,13.18
2023-12-14T00:11:40.398Z,15.27
2023-12-14T00:14:07.290Z,13.35
2023-12-14T00:16:33.827Z,14.45
2023-12-14T00:19:00.389Z,14.38
2023-12-14T00:23:53.360Z,15.25
2023-12-14T00:26:19.848Z,13.02
2023-12-14T00:28:46.363Z,14.55
2023-12-14T00:31:12.832Z,13.68
2023-12-14T00:33:39.542Z,14.13
2023-12-14T00:38:32.562Z,12.15
2023-12-14T00:40:59.163Z,14.73
2023-12-14T00:45:53.738Z,14.38
2023-12-14T00:48:20.409Z,12.73
2023-12-14T00:53:13.394Z,13.85
2023-12-14T00:58:06.462Z,13.05
2023-12-14T01:00:32.955Z,13.60
2023-12-14T01:02:59.518Z,13.27
2023-12-14T01:07:52.611Z,12.43
2023-12-14T01:10:19.127Z,11.05
2023-12-14T01:12:45.584Z,11.48
2023-12-14T01:15:12.170Z,10.73
2023-12-14T01:20:08.210Z,10.13
2023-12-14T01:22:35.041Z,12.00
2023-12-14T01:25:01.708Z,11.35
2023-12-14T01:27:28.167Z,11.50
2023-12-14T01:29:54.689Z,10.70
2023-12-14T01:32:21.208Z,10.68
2023-12-14T01:34:47.692Z,10.40
2023-12-14T01:37:14.149Z,10.57
2023-12-14T01:39:40.656Z,12.18
2023-12-14T01:42:07.164Z,11.45
2023-12-14T01:44:33.878Z,11.80
2023-12-14T01:49:26.884Z,11.27
2023-12-14T01:51:53.360Z,12.18
2023-12-14T01:54:19.834Z,11.93
2023-12-14T01:56:47.569Z,12.45
2023-12-14T01:59:14.551Z,12.05
2023-12-14T02:01:48.923Z,13.30
2023-12-14T02:04:15.951Z,13.50
2023-12-14T02:06:42.529Z,13.23
2023-12-14T02:09:09.027Z,13.93
2023-12-14T02:11:35.685Z,13.15
2023-12-14T02:16:33.429Z,13.15
2023-12-14T02:19:00.045Z,12.82
2023-12-14T02:23:53.041Z,13.65
2023-12-14T02:26:19.577Z,12.95
2023-12-14T02:46:16.484Z,13.18
2023-12-14T02:48:44.672Z,14.52
2023-12-14T02:51:15.945Z,15.45
2023-12-14T02:53:43.326Z,13.60
2023-12-14T02:56:11.429Z,13.57
2023-12-14T02:58:38.024Z,14.65
2023-12-14T03:01:05.244Z,13.93
2023-12-14T03:03:31.777Z,14.23
2023-12-14T03:08:24.860Z,12.65
2023-12-14T03:10:51.367Z,12.50
2023-12-14T03:13:17.901Z,12.60
2023-12-14T03:15:44.442Z,11.48
2023-12-14T03:20:37.576Z,10.18
2023-12-14T03:23:04.318Z,11.18
2023-12-14T03:25:30.886Z,10.82
2023-12-14T03:27:57.390Z,11.00
2023-12-14T03:30:23.960Z,11.00
2023-12-14T03:32:50.555Z,10.43
2023-12-14T03:37:43.643Z,10.70
2023-12-14T03:40:10.413Z,10.27
2023-12-14T03:42:37.083Z,10.25
2023-12-14T03:45:04.057Z,10.48
2023-12-14T03:47:30.519Z,10.10
2023-12-14T03:49:57.812Z,9.60
2023-12-14T03:52:24.314Z,10.02
2023-12-14T03:54:50.809Z,9.48
2023-12-14T03:57:17.294Z,10.27
2023-12-14T03:59:43.816Z,10.43
2023-12-14T04:02:10.419Z,10.65
2023-12-14T04:07:03.567Z,10.27
2023-12-14T04:11:56.605Z,9.43
2023-12-14T04:16:49.652Z,9.68
2023-12-14T04:19:16.319Z,10.82
2023-12-14T04:24:10.443Z,11.32
2023-12-14T04:26:37.193Z,11.30
2023-12-14T04:29:03.719Z,11.00
2023-12-14T04:31:30.237Z,11.50
2023-12-14T04:33:56.739Z,12.05
2023-12-14T04:36:23.413Z,10.73
2023-12-14T04:41:16.467Z,11.00
2023-12-14T04:46:09.421Z,11.30
2023-12-14T04:48:36.072Z,10.57
2023-12-14T04:53:29.054Z,10.27
2023-12-14T04:55:55.686Z,10.18
2023-12-14T04:58:22.252Z,10.07
2023-12-14T05:00:48.776Z,10.48
2023-12-14T05:05:41.905Z,9.88
2023-12-14T05:10:37.062Z,9.20
2023-12-14T05:13:04.042Z,9.20
2023-12-14T05:17:57.011Z,9.63
2023-12-14T05:22:50.079Z,10.07
2023-12-14T05:27:43.431Z,9.02
2023-12-14T05:30:10.364Z,9.38
2023-12-14T05:32:37.302Z,9.40
2023-12-14T05:35:04.222Z,9.95
2023-12-14T05:37:30.694Z,10.82
2023-12-14T05:39:57.154Z,9.80
2023-12-14T05:42:24.052Z,8.90
2023-12-14T05:44:50.607Z,9.07
2023-12-14T05:49:44.380Z,9.48
2023-12-14T05:52:11.836Z,8.82
2023-12-14T05:54:39.217Z,9.60
2023-12-14T05:57:05.965Z,9.38
2023-12-14T05:59:32.906Z,9.18
2023-12-14T06:02:00.251Z,8.68
2023-12-14T06:04:28.261Z,9.63
2023-12-14T06:06:54.756Z,9.20
2023-12-14T06:09:25.889Z,10.77
2023-12-14T06:11:52.668Z,9.98
2023-12-14T06:16:45.944Z,8.63
2023-12-14T06:19:13.066Z,8.57
2023-12-14T06:21:39.534Z,9.40
2023-12-14T06:24:07.589Z,9.27
2023-12-14T06:26:34.091Z,9.55
2023-12-14T06:29:00.671Z,9.52
2023-12-14T06:33:54.211Z,10.25
2023-12-14T06:36:21.497Z,10.02
2023-12-14T06:38:48.030Z,10.07
2023-12-14T06:41:25.027Z,10.52
2023-12-14T06:43:52.301Z,11.10
2023-12-14T06:46:19.233Z,10.05
2023-12-14T06:48:46.401Z,11.20
2023-12-14T06:51:13.386Z,10.60
2023-12-14T06:53:44.533Z,10.95
2023-12-14T06:56:12.324Z,11.23
2023-12-14T06:58:43.809Z,10.88
2023-12-14T07:01:17.821Z,11.02
2023-12-14T07:03:53.257Z,11.95
2023-12-14T07:06:20.835Z,12.57
2023-12-14T07:08:59.973Z,11.85
2023-12-14T07:11:30.608Z,12.27
2023-12-14T07:13:57.251Z,13.57
2023-12-14T07:18:50.911Z,14.35
2023-12-14T07:23:47.032Z,14.88
2023-12-14T07:26:13.677Z,13.40
2023-12-14T07:31:07.072Z,13.77
2023-12-14T07:33:51.570Z,14.57
2023-12-14T07:36:18.554Z,13.93
2023-12-14T07:38:47.482Z,15.05
2023-12-14T07:41:14.248Z,14.73
2023-12-14T07:43:40.882Z,13.57
2023-12-14T07:48:34.148Z,12.32
2023-12-14T07:51:00.965Z,13.38
2023-12-14T07:53:27.981Z,14.27
2023-12-14T07:55:54.610Z,14.00
2023-12-14T07:58:22.742Z,13.40
2023-12-14T08:13:26.012Z,15.00
2023-12-14T08:15:53.465Z,15.43
2023-12-14T08:18:48.566Z,14.27
2023-12-14T08:21:17.950Z,15.10
2023-12-14T08:23:52.625Z,14.05
2023-12-14T08:27:07.040Z,13.18
2023-12-14T08:29:38.516Z,15.63
2023-12-14T08:32:05.798Z,14.93
2023-12-14T08:34:32.506Z,14.73
2023-12-14T08:39:28.303Z,14.52
2023-12-14T08:41:54.968Z,14.38
2023-12-14T08:46:51.137Z,14.00
2023-12-14T08:49:49.245Z,15.43
2023-12-14T08:52:53.254Z,16.13
2023-12-14T08:55:38.593Z,16.20
2023-12-14T08:58:17.297Z,16.40
2023-12-14T09:00:53.511Z,15.98
2023-12-14T09:03:32.402Z,16.33
2023-12-14T09:06:00.224Z,15.23
2023-12-14T09:16:00.297Z,17.25
2023-12-14T09:18:27.183Z,16.17
2023-12-14T09:20:53.746Z,16.27
2023-12-14T09:23:20.509Z,15.98
2023-12-14T09:26:01.451Z,15.85
2023-12-14T09:28:28.359Z,15.40
2023-12-14T09:30:57.597Z,16.13
2023-12-14T09:33:24.313Z,15.93
2023-12-14T09:35:50.965Z,17.25
2023-12-14T09:38:20.422Z,16.83
2023-12-14T09:40:47.091Z,15.90
2023-12-14T09:45:46.970Z,16.58
2023-12-14T09:48:14.410Z,16.60
2023-12-14T09:50:41.909Z,16.38
2023-12-14T09:53:09.447Z,14.75
2023-12-14T09:55:36.255Z,15.13
2023-12-14T09:58:07.641Z,18.08
2023-12-14T10:00:40.050Z,16.38
2023-12-14T10:03:25.388Z,16.75
2023-12-14T10:17:06.816Z,16.92
2023-12-14T10:24:40.749Z,17.35
2023-12-14T10:38:26.955Z,14.13
2023-12-14T10:40:57.516Z,13.75
2023-12-14T10:50:52.847Z,15.75
2023-12-14T10:53:38.931Z,13.98
2023-12-14T11:00:59.156Z,12.98
2023-12-14T11:03:52.480Z,13.85
2023-12-14T11:06:25.648Z,14.57
2023-12-14T11:08:54.260Z,13.20
2023-12-14T11:15:41.405Z,14.27
2023-12-14T11:18:11.871Z,13.02
2023-12-14T11:20:58.818Z,12.65
2023-12-14T11:23:25.997Z,12.88
2023-12-14T11:25:58.083Z,13.13
2023-12-14T11:28:27.602Z,12.25
2023-12-14T11:30:57.614Z,13.98
2023-12-14T11:33:25.344Z,12.30
2023-12-14T11:35:53.941Z,12.02
2023-12-14T11:38:22.701Z,12.50
2023-12-14T11:41:09.047Z,12.68
2023-12-14T11:43:46.067Z,12.15
2023-12-14T11:46:20.197Z,12.82
2023-12-14T11:48:47.686Z,12.75
2023-12-14T11:51:14.538Z,11.88
2023-12-14T11:53:41.803Z,14.10
2023-12-14T11:56:09.073Z,12.90
2023-12-14T11:58:36.215Z,14.05
2023-12-14T12:01:35.187Z,13.88
2023-12-14T12:04:14.325Z,12.27
2023-12-14T12:06:42.779Z,12.52
2023-12-14T12:09:12.059Z,13.55
2023-12-14T12:14:50.722Z,11.15
2023-12-14T12:17:22.995Z,12.85
2023-12-14T12:19:49.957Z,12.68
2023-12-14T12:22:16.876Z,11.57
2023-12-14T12:24:53.070Z,12.02
2023-12-14T12:27:31.798Z,11.00
2023-12-14T12:29:58.907Z,11.65
2023-12-14T12:32:31.105Z,12.82
2023-12-14T12:35:01.720Z,12.75
2023-12-14T12:37:31.035Z,13.25
2023-12-14T12:39:57.569Z,12.07
2023-12-14T12:42:26.518Z,14.43
2023-12-14T12:44:53.483Z,13.73
2023-12-14T12:47:20.267Z,12.60
2023-12-14T12:49:48.621Z,12.55
2023-12-14T12:52:16.901Z,12.02
2023-12-14T12:54:43.706Z,11.70
2023-12-14T12:57:10.790Z,11.25
2023-12-14T12:59:39.264Z,11.43
2023-12-14T13:02:46.412Z,12.57
2023-12-14T13:14:27.349Z,10.15
2023-12-14T13:17:20.445Z,11.73
2023-12-14T13:19:53.671Z,11.38
2023-12-14T13:22:20.673Z,11.13
2023-12-14T13:24:47.451Z,11.10
2023-12-14T13:27:44.548Z,11.20
2023-12-14T14:43:30.581Z,11.85
2023-12-14T14:48:38.532Z,11.73
2023-12-14T14:51:09.418Z,11.40
2023-12-14T14:54:02.420Z,12.02
2023-12-14T15:04:59.625Z,12.90
2023-12-14T15:07:30.172Z,11.30
2023-12-14T15:10:02.725Z,11.68
2023-12-14T15:13:03.423Z,11.90
2023-12-14T15:19:43.200Z,11.55
2023-12-14T15:22:34.999Z,10.00
2023-12-14T15:25:09.262Z,10.98
2023-12-14T15:27:50.374Z,10.68
2023-12-14T15:30:20.504Z,12.68
2023-12-14T15:32:47.331Z,11.50
2023-12-14T15:35:14.673Z,12.60
2023-12-14T16:01:15.326Z,11.63
2023-12-14T16:37:57.920Z,10.05
2023-12-14T16:48:12.757Z,9.85
2023-12-14T16:50:39.774Z,11.65
2023-12-14T16:53:11.309Z,10.15
2023-12-14T16:55:38.332Z,11.27
2023-12-14T16:58:05.060Z,10.90
2023-12-14T17:00:31.634Z,11.00
2023-12-14T17:05:24.831Z,10.63
2023-12-14T17:10:18.216Z,10.85
2023-12-14T17:12:44.733Z,10.35
2023-12-14T17:15:13.876Z,10.80
2023-12-14T17:17:41.516Z,10.82
2023-12-14T17:20:08.748Z,10.88
2023-12-14T17:22:37.384Z,10.20
2023-12-14T17:25:05.352Z,9.65
2023-12-14T17:27:35.911Z,10.38
2023-12-14T17:30:02.763Z,10.93
2023-12-14T17:34:56.263Z,10.75
2023-12-14T17:37:22.956Z,9.70
2023-12-14T17:42:19.585Z,9.43
2023-12-14T17:44:47.200Z,11.10
2023-12-14T17:47:13.901Z,12.15
2023-12-14T17:52:07.128Z,11.40
2023-12-14T17:54:33.752Z,11.20
2023-12-14T17:59:26.948Z,11.07
2023-12-14T18:01:55.028Z,12.55
2023-12-14T18:04:22.514Z,11.20
2023-12-14T18:07:04.975Z,14.27
2023-12-14T18:09:32.025Z,11.60
2023-12-14T18:11:59.651Z,10.48
2023-12-14T18:14:29.219Z,10.27
2023-12-14T18:17:04.946Z,10.45
2023-12-14T18:19:31.673Z,9.40
2023-12-14T18:24:25.675Z,11.73
2023-12-14T18:26:52.346Z,9.90
2023-12-14T18:31:45.553Z,10.00
2023-12-14T18:36:41.945Z,10.75
2023-12-14T18:39:08.577Z,11.77
2023-12-14T18:44:02.407Z,11.17
2023-12-14T18:46:29.343Z,11.88
2023-12-14T18:48:56.120Z,12.82
2023-12-14T18:51:22.932Z,11.20
2023-12-14T18:56:16.412Z,10.93
2023-12-14T18:58:43.198Z,13.85
2023-12-14T19:01:12.563Z,11.85
2023-12-14T19:03:40.400Z,12.00
2023-12-14T19:06:10.521Z,12.43
2023-12-14T19:08:39.825Z,12.02
2023-12-14T19:11:06.753Z,11.23
2023-12-14T19:13:33.656Z,10.82
2023-12-14T19:16:00.230Z,11.50
2023-12-14T19:18:27.003Z,10.93
2023-12-14T19:20:53.600Z,11.10
2023-12-14T19:23:20.258Z,10.68
2023-12-14T19:25:46.958Z,11.27
2023-12-14T19:30:40.317Z,10.05
2023-12-14T19:35:33.583Z,10.35
2023-12-14T19:40:26.750Z,9.73
2023-12-14T19:45:19.732Z,11.27
2023-12-14T19:47:46.606Z,11.25
2023-12-14T19:50:16.464Z,10.07
2023-12-14T19:52:44.596Z,10.07
2023-12-14T19:55:13.409Z,9.43
2023-12-14T19:57:40.411Z,8.80
2023-12-14T20:00:12.473Z,10.13
2023-12-14T20:02:39.797Z,10.82
2023-12-14T20:05:20.797Z,10.40
2023-12-14T20:07:52.857Z,9.77
2023-12-14T20:13:10.736Z,11.05
2023-12-14T20:15:40.736Z,10.63
2023-12-14T20:18:09.513Z,10.15
2023-12-14T20:20:37.288Z,9.70
2023-12-14T20:23:06.089Z,10.52
2023-12-14T20:25:38.074Z,10.95
2023-12-14T20:28:07.850Z,10.25
2023-12-14T20:30:34.825Z,10.55
2023-12-14T20:33:04.172Z,10.00
2023-12-14T20:35:30.992Z,9.60
2023-12-14T20:37:57.672Z,9.98
2023-12-14T20:42:50.843Z,9.90
2023-12-14T20:47:53.318Z,10.32
2023-12-14T20:50:20.518Z,9.88
2023-12-14T20:52:48.935Z,10.50
2023-12-14T20:55:15.995Z,11.38
2023-12-14T20:57:44.827Z,10.35
2023-12-14T21:00:14.749Z,8.95
2023-12-14T21:02:41.981Z,9.00
2023-12-14T21:05:12.041Z,10.07
2023-12-14T21:07:39.326Z,8.80
2023-12-14T21:10:13.046Z,10.57
2023-12-14T21:12:51.017Z,10.35
2023-12-14T21:15:25.490Z,8.90
2023-12-14T21:17:57.675Z,9.98
2023-12-14T21:20:29.481Z,8.98
2023-12-14T21:22:56.639Z,9.88
2023-12-14T21:25:48.106Z,9.63
2023-12-14T21:28:15.301Z,10.00
2023-12-14T21:30:45.125Z,9.35
2023-12-14T21:33:12.314Z,8.82
2023-12-14T21:35:39.478Z,8.95
2023-12-14T21:38:06.165Z,9.80
2023-12-14T21:42:59.191Z,9.77
2023-12-14T21:45:26.743Z,8.88
2023-12-14T21:47:55.414Z,10.20
2023-12-14T21:50:22.069Z,9.68
2023-12-14T21:55:28.155Z,9.48
2023-12-14T21:57:54.769Z,9.43
2023-12-14T22:05:39.055Z,8.88
2023-12-14T22:08:05.655Z,8.80
2023-12-14T22:10:47.634Z,9.02
2023-12-14T22:13:14.191Z,10.25
2023-12-14T22:15:40.771Z,9.13
2023-12-14T22:20:36.507Z,8.73
2023-12-14T22:23:06.152Z,10.18
2023-12-14T22:25:32.956Z,10.07
2023-12-14T22:27:59.493Z,9.63
2023-12-14T22:30:26.060Z,9.25
2023-12-14T22:35:19.247Z,10.10
2023-12-14T22:40:12.525Z,9.35
2023-12-14T22:42:39.006Z,9.68
2023-12-14T22:45:06.138Z,9.73
2023-12-14T22:47:33.170Z,9.90
2023-12-14T22:49:59.821Z,11.00
2023-12-14T22:52:27.750Z,10.63
2023-12-14T22:54:54.285Z,11.05
2023-12-14T22:57:20.900Z,10.65
2023-12-14T23:02:13.917Z,12.38
2023-12-14T23:07:07.728Z,10.15
2023-12-14T23:12:00.964Z,9.70
2023-12-14T23:14:27.557Z,11.02
2023-12-14T23:19:20.720Z,10.55
2023-12-14T23:24:13.767Z,10.63
2023-12-14T23:26:40.323Z,11.35
2023-12-14T23:29:06.897Z,10.25
2023-12-14T23:33:59.990Z,10.20
2023-12-14T23:38:53.875Z,9.60
2023-12-14T23:43:47.082Z,10.40
2023-12-14T23:46:14.674Z,10.43
2023-12-14T23:48:44.949Z,9.50
2023-12-14T23:51:11.680Z,10.68
2023-12-14T23:53:38.243Z,10.05
2023-12-14T23:56:05.168Z,11.40
2023-12-14T23:58:31.748Z,9.85
